This is the latest recevied weather packets stored in our database for station/object W1CAT. If no packets are shown the sender has not sent any weather packets the latest 10 day(s).
| Time | Temp. | Humidity | Pressure | Rain* | Wind** | Luminosity | Snow |
|---|---|---|---|---|---|---|---|
| 1777472524 | 4.44° C | 61% | - | 0 mm | - | - | - |
| 1777472221 | 3.89° C | 60% | - | 0 mm | - | - | - |
| 1777471916 | 3.89° C | 62% | - | 0 mm | - | - | - |
| 1777471614 | 3.89° C | 61% | - | 0 mm | - | - | - |
| 1777471310 | 3.89° C | 61% | - | 0 mm | - | - | - |
| 1777471006 | 3.89° C | 62% | - | 0 mm | - | - | - |
| 1777470703 | 4.44° C | 59% | - | 0 mm | - | - | - |
| 1777470393 | 3.89° C | 59% | - | 0 mm | - | - | - |
| 1777470091 | 3.33° C | 62% | - | 0 mm | - | - | - |
| 1777469787 | 3.33° C | 62% | - | 0 mm | - | - | - |
| 1777469482 | 2.78° C | 64% | - | 0 mm | - | - | - |
| 1777469176 | 2.22° C | 65% | - | 0 mm | - | - | - |
| 1777468871 | 2.22° C | 66% | - | 0 mm | - | - | - |
| 1777468568 | 1.67° C | 67% | - | 0 mm | - | - | - |
| 1777468265 | 1.67° C | 68% | - | 0 mm | - | - | - |
| 1777467961 | 1.11° C | 69% | - | 0 mm | - | - | - |
| 1777467657 | 1.11° C | 69% | - | 0 mm | - | - | - |
| 1777467353 | 0.56° C | 71% | - | 0 mm | - | - | - |
| 1777467049 | 0.56° C | 73% | - | 0 mm | - | - | - |
| 1777466746 | 0° C | 75% | - | 0 mm | - | - | - |
| 1777466444 | -0.56° C | 76% | - | 0 mm | - | - | - |
| 1777466140 | -0.56° C | 77% | - | 0 mm | - | - | - |
| 1777465836 | -1.11° C | 77% | - | 0 mm | - | - | - |
| 1777465532 | -0.56° C | 76% | - | 0 mm | - | - | - |
| 1777465227 | -0.56° C | 75% | - | 0 mm | - | - | - |
* Rain latest hour (hover to see other rain measurements)
** Current wind speed in m/s (hover to see current wind gust speed)